createdAt,value
2023-01-09T00:00:00.000Z,21.41
2023-01-09T00:15:00.000Z,21.88
2023-01-09T00:30:00.000Z,21.98
2023-01-09T00:45:00.000Z,21.52
2023-01-09T01:00:00.000Z,22.33
2023-01-09T01:15:00.000Z,20.68
2023-01-09T01:30:00.000Z,21.04
2023-01-09T01:45:00.000Z,20.39
2023-01-09T02:00:00.000Z,20.92
2023-01-09T02:15:00.000Z,20.27
2023-01-09T02:30:00.000Z,21.45
2023-01-09T02:45:00.000Z,21.39
2023-01-09T03:00:00.000Z,21.86
2023-01-09T03:15:00.000Z,22.64
2023-01-09T03:30:00.000Z,27.4
2023-01-09T03:45:00.000Z,33.92
2023-01-09T04:00:00.000Z,23.66
2023-01-09T04:15:00.000Z,23.04
2023-01-09T04:30:00.000Z,22.42
2023-01-09T04:45:00.000Z,25.28
2023-01-09T05:00:00.000Z,25.12
2023-01-09T05:15:00.000Z,29.55
2023-01-09T05:30:00.000Z,25.04
2023-01-09T05:45:00.000Z,25.24
2023-01-09T06:00:00.000Z,25.05
2023-01-09T06:15:00.000Z,26.74
2023-01-09T06:30:00.000Z,21.48
2023-01-09T06:45:00.000Z,7.62
2023-01-09T07:00:00.000Z,4.4
2023-01-09T07:15:00.000Z,4.22
2023-01-09T07:30:00.000Z,4.35
2023-01-09T07:45:00.000Z,4.41
2023-01-09T08:00:00.000Z,7.44
2023-01-09T08:15:00.000Z,9.73
2023-01-09T08:30:00.000Z,8.76
2023-01-09T08:45:00.000Z,7.19
2023-01-09T09:00:00.000Z,4.52
2023-01-09T09:15:00.000Z,4.95
2023-01-09T09:30:00.000Z,4.9
2023-01-09T09:45:00.000Z,4.89
2023-01-09T10:00:00.000Z,4.4
2023-01-09T10:15:00.000Z,4.39
2023-01-09T10:30:00.000Z,4.41
2023-01-09T10:45:00.000Z,4.58
2023-01-09T11:00:00.000Z,4.4
2023-01-09T11:15:00.000Z,4.56
2023-01-09T11:30:00.000Z,4.82
2023-01-09T11:45:00.000Z,5.85
2023-01-09T12:00:00.000Z,5.53
2023-01-09T12:15:00.000Z,5.87
2023-01-09T12:30:00.000Z,4.39
2023-01-09T12:45:00.000Z,4.89
2023-01-09T13:00:00.000Z,4.54
2023-01-09T13:15:00.000Z,4.59
2023-01-09T13:30:00.000Z,5.27
2023-01-09T13:45:00.000Z,6.29
2023-01-09T14:00:00.000Z,7.04
2023-01-09T14:15:00.000Z,7.48
2023-01-09T14:30:00.000Z,9.6
2023-01-09T14:45:00.000Z,10.56
2023-01-09T15:00:00.000Z,10.78
2023-01-09T15:15:00.000Z,14.54
2023-01-09T15:30:00.000Z,11.75
2023-01-09T15:45:00.000Z,11
2023-01-09T16:00:00.000Z,10.66
2023-01-09T16:15:00.000Z,11.27
2023-01-09T16:30:00.000Z,11.32
2023-01-09T16:45:00.000Z,8.34
2023-01-09T17:00:00.000Z,8.48
2023-01-09T17:15:00.000Z,8.22
2023-01-09T17:30:00.000Z,10.24
2023-01-09T17:45:00.000Z,14.26
2023-01-09T18:00:00.000Z,6.35
2023-01-09T18:15:00.000Z,6.6
2023-01-09T18:30:00.000Z,4.79
2023-01-09T18:45:00.000Z,4.56
2023-01-09T19:00:00.000Z,5.81
2023-01-09T19:15:00.000Z,5.42
2023-01-09T19:30:00.000Z,6.55
2023-01-09T19:45:00.000Z,5.38
2023-01-09T20:00:00.000Z,11.93
2023-01-09T20:15:00.000Z,29.31
2023-01-09T20:30:00.000Z,19.01
2023-01-09T20:45:00.000Z,6.36
2023-01-09T21:00:00.000Z,6.08
2023-01-09T21:15:00.000Z,5.04
2023-01-09T21:30:00.000Z,5.13
2023-01-09T21:45:00.000Z,4.96
2023-01-09T22:00:00.000Z,4.48
2023-01-09T22:15:00.000Z,4.6
2023-01-09T22:30:00.000Z,4.4
2023-01-09T22:45:00.000Z,4.19
2023-01-09T23:00:00.000Z,4.24
2023-01-09T23:15:00.000Z,4.21
2023-01-09T23:30:00.000Z,4.28
2023-01-09T23:45:00.000Z,4.25
